KNBG/NBG METAR and TAF weather

Enter ICAO airport designator
Station Type Date Time Source
KNBG METAR 2021/07/28 03:55 UTC NOAA

KNBG 280355Z 00000KT 10SM FEW040 26/26 A3000 RMK AO2 SLP159 T02610261 $


Station Type Date Time Source
KNBG Decoded METAR 2021/07/28 03:55 UTC NOAA

NEW ORLEANS NAVAL AIR STN, LA, United States (KNBG) 29-50N 90-01W
Jul 27, 2021 - 11:55 PM EDT / 2021.07.28 0355 UTC
Wind: Calm:0
Visibility: 10 mile(s):0
Sky conditions: mostly clear
Temperature: 79.0 F (26.1 C)
Dew Point: 79.0 F (26.1 C)
Relative Humidity: 100%
Pressure (altimeter): 30 in. Hg (1015 hPa)
ob: KNBG 280355Z 00000KT 10SM FEW040 26/26 A3000 RMK AO2 SLP159 T02610261
cycle: 4

Station Type Date Time Source
KNBG TAF 2021/07/27 23:56 UTC NOAA

TAF KNBG 2723/2823 12006KT 9999 FEW040 BKN250 QNH2990INS
BECMG 2807/2809 VRB03KT 9999 SCT020 SCT250 QNH3001INS
FM281800 14007KT 9999 SCT035 SCT250 QNH3006INS AUTOMATED SENSOR METWATCH 2804 TIL 2811 T25/2812Z T34/2822Z FN00243

Example: see airport list